Portland, Indiana
Current Conditions -  °F | °C
As of 12:53 AM on Thursday 18 Dec 2014 (Local Time) from KMIE Reporting Station
Overcast Overcast  
Wind Chill: 17°   Ceiling: 2100
Heat Index: 26°   Visibility: 10mi
Dew Point: 18°   Wind: 9mph
Humidity: 71%   Direction: 320°NW
Pressure: 30.27"   Gusts: NA
Location:  40.44°N, 84.98°W
Report Text: KMIE 180553Z AUTO 32008KT 10SM OVC021 M03/M08 A3027 RMK AO2 SLP257 T10331078 11033 21039 53003
Loading
Personal Weather Stations






























Interactive Weather Map New forecast layout! Learn more

10-Day Weather Forecast

Advertisements
Track Severe Weather on mobile